Tamgout — 7TZK — position and weather

sailwx.info

Track history (hours):
 
Tides and Currents Weather Stations Pressure Air Temp Water Temp Dewpoint Dewpoint Depression Visibility Wind Speed Wind Dir Waves Ship Positions

Tamgout

Last reported at 2017-Dec-08 03:44 UTC. Time now 2017-Dec-14 17:13 UTC.
Position N 36°46' E 013°29'.

Length 101 m; draft 6.4 m.

Type: Ship (hazmat cat B). MMSI: 605266120.

Date/timePositionNaut miles runAvg speedWind from/ knotsBaromVisibWave heightAir tempDewpointWater temp
2017-Dec-08 03:44N 36°46' E 013°29'2 8.2
2017-Dec-08 03:28N 36°46' E 013°32'6 8.4
2017-Dec-08 02:49N 36°44' E 013°38'5 8.3
2017-Dec-08 02:10N 36°42' E 013°44'3 8.2
2017-Dec-08 01:50N 36°41' E 013°48'3 8.1
2017-Dec-08 01:30N 36°40' E 013°51'4 8.2
2017-Dec-08 01:00N 36°39' E 013°56'4 8.3
2017-Dec-08 00:30N 36°37' E 014°00'4 8.1
2017-Dec-08 00:00N 36°36' E 014°05'4 8.1
2017-Dec-07 23:30N 36°35' E 014°10'4 8.1
2017-Dec-07 23:00N 36°33' E 014°15'4 8.0
2017-Dec-07 22:30N 36°32' E 014°19'4 7.8
2017-Dec-07 22:00N 36°30' E 014°24'4 7.9
2017-Dec-07 21:30N 36°29' E 014°29'4 8.1
2017-Dec-07 21:00N 36°28' E 014°33'4 7.7
2017-Dec-07 20:30N 36°27' E 014°38'  
Track history (hours):
 
Tides and Currents Weather Stations Pressure Air Temp Water Temp Dewpoint Dewpoint Depression Visibility Wind Speed Wind Dir Waves Ship Positions

Tamgout

Last reported at 2017-Dec-08 03:44 UTC. Time now 2017-Dec-14 17:13 UTC.
Position N 36°46' E 013°29'.

Length 101 m; draft 6.4 m.

Type: Ship (hazmat cat B). MMSI: 605266120.

Date/timePositionNaut miles runAvg speedWind from/ knotsBaromVisibWave heightAir tempDewpointWater temp
2017-Dec-08 03:44N 36°46' E 013°29'2 8.2
2017-Dec-08 03:28N 36°46' E 013°32'6 8.4
2017-Dec-08 02:49N 36°44' E 013°38'5 8.3
2017-Dec-08 02:10N 36°42' E 013°44'3 8.2
2017-Dec-08 01:50N 36°41' E 013°48'3 8.1
2017-Dec-08 01:30N 36°40' E 013°51'4 8.2
2017-Dec-08 01:00N 36°39' E 013°56'4 8.3
2017-Dec-08 00:30N 36°37' E 014°00'4 8.1
2017-Dec-08 00:00N 36°36' E 014°05'4 8.1
2017-Dec-07 23:30N 36°35' E 014°10'4 8.1
2017-Dec-07 23:00N 36°33' E 014°15'4 8.0
2017-Dec-07 22:30N 36°32' E 014°19'4 7.8
2017-Dec-07 22:00N 36°30' E 014°24'4 7.9
2017-Dec-07 21:30N 36°29' E 014°29'4 8.1
2017-Dec-07 21:00N 36°28' E 014°33'4 7.7
2017-Dec-07 20:30N 36°27' E 014°38'  

Dump ship's entire track history